Aérodrome :
LOGIN :

S'inscrire | Disclaimer

   EN    FR    IT 

 










Légende :    VFR   VFR Marginal   IFR   IFR Intensif   IFR Très Intensif
Visi : 
Plafond : 
>= 8 km
>= 3000ft
5 à 8 km
1000 à 3000 ft
1500m à 5 km
500 à 1000 ft
800 à 1500m
200 à 500 ft
< 800m
< 200 ft
Symboles :   Orages  Brouillard  Fortes neiges  Fortes précipitations  Vent > 20 kt
SIGMETs :   Divers  Orages  Givrage  Turbulence  Onde Orograph.  Cendres Volcan.






- Altitude de l'aérodrome : 359 ft
- Code IATA : BVA


LFOB - Beauvais

DERNIER METAR :
  • 041530Z AUTO 17006KT 140V220 9999 FEW048 BKN084 BKN130 21/11 Q1012 TEMPO 2000 SHRA BKN030CB

METARs EXPIRÉS :
  • 041500Z AUTO 18005KT 130V220 9999 FEW040 BKN054 BKN096 21/11 Q1012 TEMPO 2000 SHRA BKN030CB
  • 041430Z AUTO 19004KT 120V260 9999 FEW038 BKN140 21/12 Q1012 TEMPO 2000 SHRA BKN030CB
  • 041400Z AUTO 12003KT 040V200 CAVOK 21/12 Q1012 TEMPO 2000 SHRA BKN030CB
  • 041330Z AUTO 14004KT 090V190 9999 FEW036 BKN096 BKN110 20/12 Q1012 TEMPO 2000 SHRA BKN030CB
  • 041300Z AUTO 13004KT 100V200 9999 FEW034 SCT096 BKN110 20/12 Q1012 TEMPO 2000 SHRA BKN030CB

TAF TAF LFOB
Valide du 04 à 12h jusqu'au 05 à 12h UTC


041100Z 0412/0512 18003KT 9999 BKN030
TEMPO 0412/0419 2000 SHRA BKN030CB
BECMG 0500/0504 3000 BR
PROB30 0504/0506 0700 FG VV///
BECMG 0506/0508 9999 NSW
BECMG 0510/0512 21013KT
ATIS : +33 3 44 11 49 28



MET'MAP, la Météo Aéronautique d'un coup d'oeil ! - Copyright ORBIFLY Décembre 2007 - Disclaimer

ORBIFLY MET'MAP TEAM :

Programmation & Développement : Alexandra Zaïnal
Sur une idée originale de : Baudouin d'Aumeries
Assistance à la programmation : Marc-Olivier Méhu
Soutien technique & logistique : Manuel Goepfert

Contact : metmap@orbifly.com




SOURCES & CREDITS :

   NOAA